sensor_id;sensor_type;location;lat;lon;timestamp;pressure;altitude;pressure_sealevel;temperature;humidity
69751;BME280;57335;52.288;6.056;2023-02-20T00:00:29;102507.69;;;4.97;100.00
69751;BME280;57335;52.288;6.056;2023-02-20T00:02:57;102498.69;;;5.02;100.00
69751;BME280;57335;52.288;6.056;2023-02-20T00:05:24;102496.78;;;5.04;100.00
69751;BME280;57335;52.288;6.056;2023-02-20T00:07:51;102470.34;;;4.98;100.00
69751;BME280;57335;52.288;6.056;2023-02-20T00:10:18;102472.69;;;5.02;100.00
69751;BME280;57335;52.288;6.056;2023-02-20T00:12:44;102463.69;;;5.06;100.00
69751;BME280;57335;52.288;6.056;2023-02-20T00:15:14;102439.97;;;4.99;100.00
69751;BME280;57335;52.288;6.056;2023-02-20T00:17:42;102451.44;;;5.17;100.00
69751;BME280;57335;52.288;6.056;2023-02-20T00:20:09;102448.31;;;5.24;100.00
69751;BME280;57335;52.288;6.056;2023-02-20T00:22:35;102443.81;;;5.26;100.00
69751;BME280;57335;52.288;6.056;2023-02-20T00:25:02;102443.53;;;5.29;100.00
69751;BME280;57335;52.288;6.056;2023-02-20T00:27:28;102447.97;;;5.38;100.00
69751;BME280;57335;52.288;6.056;2023-02-20T00:29:55;102436.34;;;5.42;100.00
69751;BME280;57335;52.288;6.056;2023-02-20T00:32:21;102428.66;;;5.40;100.00
69751;BME280;57335;52.288;6.056;2023-02-20T00:34:48;102424.59;;;5.48;100.00
69751;BME280;57335;52.288;6.056;2023-02-20T00:37:14;102421.19;;;5.47;100.00
69751;BME280;57335;52.288;6.056;2023-02-20T00:39:41;102408.31;;;5.46;100.00
69751;BME280;57335;52.288;6.056;2023-02-20T00:42:07;102410.78;;;5.47;100.00
69751;BME280;57335;52.288;6.056;2023-02-20T00:44:34;102432.25;;;5.49;100.00
69751;BME280;57335;52.288;6.056;2023-02-20T00:47:00;102436.78;;;5.57;100.00
69751;BME280;57335;52.288;6.056;2023-02-20T00:49:27;102417.19;;;5.53;100.00
69751;BME280;57335;52.288;6.056;2023-02-20T00:51:53;102421.47;;;5.64;100.00
69751;BME280;57335;52.288;6.056;2023-02-20T00:54:20;102428.19;;;5.66;100.00
69751;BME280;57335;52.288;6.056;2023-02-20T00:56:46;102411.75;;;5.66;100.00
69751;BME280;57335;52.288;6.056;2023-02-20T00:59:13;102416.81;;;5.67;100.00
69751;BME280;57335;52.288;6.056;2023-02-20T01:01:39;102400.13;;;5.70;100.00
69751;BME280;57335;52.288;6.056;2023-02-20T01:04:06;102392.03;;;5.63;100.00
69751;BME280;57335;52.288;6.056;2023-02-20T01:06:32;102377.09;;;5.65;100.00
69751;BME280;57335;52.288;6.056;2023-02-20T01:08:59;102376.59;;;5.71;100.00
69751;BME280;57335;52.288;6.056;2023-02-20T01:11:25;102376.59;;;5.71;100.00
69751;BME280;57335;52.288;6.056;2023-02-20T01:13:52;102361.38;;;5.67;100.00
69751;BME280;57335;52.288;6.056;2023-02-20T01:16:18;102356.84;;;5.69;100.00
69751;BME280;57335;52.288;6.056;2023-02-20T01:18:48;102345.91;;;5.65;100.00
69751;BME280;57335;52.288;6.056;2023-02-20T01:21:15;102343.59;;;5.62;100.00
69751;BME280;57335;52.288;6.056;2023-02-20T01:23:41;102349.34;;;5.66;100.00
69751;BME280;57335;52.288;6.056;2023-02-20T01:26:08;102348.09;;;5.70;100.00
69751;BME280;57335;52.288;6.056;2023-02-20T01:28:34;102336.59;;;5.63;100.00
69751;BME280;57335;52.288;6.056;2023-02-20T01:31:00;102329.22;;;5.68;100.00
69751;BME280;57335;52.288;6.056;2023-02-20T01:33:27;102323.59;;;5.63;100.00
69751;BME280;57335;52.288;6.056;2023-02-20T01:35:53;102342.22;;;5.68;100.00
69751;BME280;57335;52.288;6.056;2023-02-20T01:38:20;102336.47;;;5.64;100.00
69751;BME280;57335;52.288;6.056;2023-02-20T01:40:47;102318.25;;;5.54;100.00
69751;BME280;57335;52.288;6.056;2023-02-20T01:43:15;102327.41;;;5.58;100.00
69751;BME280;57335;52.288;6.056;2023-02-20T01:45:43;102338.13;;;5.55;100.00
69751;BME280;57335;52.288;6.056;2023-02-20T01:48:20;102330.16;;;5.47;100.00
69751;BME280;57335;52.288;6.056;2023-02-20T01:50:47;102336.31;;;5.46;100.00
69751;BME280;57335;52.288;6.056;2023-02-20T01:53:19;102322.75;;;5.43;100.00
69751;BME280;57335;52.288;6.056;2023-02-20T01:55:48;102318.22;;;5.35;100.00
69751;BME280;57335;52.288;6.056;2023-02-20T01:58:21;102317.69;;;5.31;100.00
69751;BME280;57335;52.288;6.056;2023-02-20T02:00:49;102291.69;;;5.22;100.00
69751;BME280;57335;52.288;6.056;2023-02-20T02:03:21;102305.25;;;5.25;100.00
69751;BME280;57335;52.288;6.056;2023-02-20T02:05:53;102292.50;;;5.22;100.00
69751;BME280;57335;52.288;6.056;2023-02-20T02:08:24;102290.31;;;5.17;100.00
69751;BME280;57335;52.288;6.056;2023-02-20T02:11:07;102272.66;;;5.11;100.00
69751;BME280;57335;52.288;6.056;2023-02-20T02:13:36;102279.59;;;5.11;100.00
69751;BME280;57335;52.288;6.056;2023-02-20T02:16:14;102282.63;;;5.16;100.00
69751;BME280;57335;52.288;6.056;2023-02-20T02:19:13;102259.09;;;5.08;100.00
69751;BME280;57335;52.288;6.056;2023-02-20T02:25:14;102266.06;;;5.17;100.00
69751;BME280;57335;52.288;6.056;2023-02-20T02:30:49;102259.38;;;5.14;100.00
69751;BME280;57335;52.288;6.056;2023-02-20T02:33:36;102263.09;;;5.22;100.00
69751;BME280;57335;52.288;6.056;2023-02-20T02:38:59;102248.56;;;5.19;100.00
69751;BME280;57335;52.288;6.056;2023-02-20T02:44:45;102258.16;;;5.18;100.00
69751;BME280;57335;52.288;6.056;2023-02-20T02:47:21;102251.72;;;5.13;100.00
69751;BME280;57335;52.288;6.056;2023-02-20T02:50:14;102248.16;;;5.14;100.00
69751;BME280;57335;52.288;6.056;2023-02-20T02:52:42;102242.16;;;5.13;100.00
69751;BME280;57335;52.288;6.056;2023-02-20T02:55:09;102245.44;;;5.15;100.00
69751;BME280;57335;52.288;6.056;2023-02-20T02:57:35;102238.31;;;5.08;100.00
69751;BME280;57335;52.288;6.056;2023-02-20T03:00:10;102226.94;;;5.09;100.00
69751;BME280;57335;52.288;6.056;2023-02-20T03:02:49;102237.91;;;5.12;100.00
69751;BME280;57335;52.288;6.056;2023-02-20T03:05:22;102229.28;;;5.12;100.00
69751;BME280;57335;52.288;6.056;2023-02-20T03:07:53;102222.75;;;5.17;100.00
69751;BME280;57335;52.288;6.056;2023-02-20T03:10:23;102217.13;;;5.22;100.00
69751;BME280;57335;52.288;6.056;2023-02-20T03:12:50;102212.06;;;5.20;100.00
69751;BME280;57335;52.288;6.056;2023-02-20T03:15:26;102220.53;;;5.32;100.00
69751;BME280;57335;52.288;6.056;2023-02-20T03:19:45;102222.59;;;5.38;100.00
69751;BME280;57335;52.288;6.056;2023-02-20T03:22:23;102226.28;;;5.46;100.00
69751;BME280;57335;52.288;6.056;2023-02-20T03:24:56;102220.13;;;5.47;100.00
69751;BME280;57335;52.288;6.056;2023-02-20T03:27:31;102224.50;;;5.56;100.00
69751;BME280;57335;52.288;6.056;2023-02-20T03:29:58;102224.91;;;5.61;100.00
69751;BME280;57335;52.288;6.056;2023-02-20T03:32:27;102229.53;;;5.67;100.00
69751;BME280;57335;52.288;6.056;2023-02-20T03:34:56;102214.47;;;5.71;100.00
69751;BME280;57335;52.288;6.056;2023-02-20T03:37:26;102209.81;;;5.74;100.00
69751;BME280;57335;52.288;6.056;2023-02-20T03:39:58;102220.47;;;5.81;100.00
69751;BME280;57335;52.288;6.056;2023-02-20T03:42:34;102221.16;;;5.83;100.00
69751;BME280;57335;52.288;6.056;2023-02-20T03:45:03;102215.38;;;5.89;100.00
69751;BME280;57335;52.288;6.056;2023-02-20T03:47:30;102220.19;;;5.94;100.00
69751;BME280;57335;52.288;6.056;2023-02-20T03:50:01;102211.19;;;5.98;100.00
69751;BME280;57335;52.288;6.056;2023-02-20T03:52:29;102206.66;;;6.00;100.00
69751;BME280;57335;52.288;6.056;2023-02-20T03:54:56;102203.75;;;6.03;100.00
69751;BME280;57335;52.288;6.056;2023-02-20T03:57:33;102203.34;;;6.08;100.00
69751;BME280;57335;52.288;6.056;2023-02-20T04:00:05;102205.78;;;6.09;100.00
69751;BME280;57335;52.288;6.056;2023-02-20T04:02:37;102218.53;;;6.12;100.00
69751;BME280;57335;52.288;6.056;2023-02-20T04:05:09;102209.06;;;6.11;100.00
69751;BME280;57335;52.288;6.056;2023-02-20T04:07:45;102209.59;;;6.15;100.00
69751;BME280;57335;52.288;6.056;2023-02-20T04:10:23;102197.44;;;6.15;100.00
69751;BME280;57335;52.288;6.056;2023-02-20T04:12:51;102207.53;;;6.18;100.00
69751;BME280;57335;52.288;6.056;2023-02-20T04:15:19;102198.91;;;6.18;100.00
69751;BME280;57335;52.288;6.056;2023-02-20T04:17:50;102195.19;;;6.21;100.00
69751;BME280;57335;52.288;6.056;2023-02-20T04:20:18;102190.53;;;6.24;100.00
69751;BME280;57335;52.288;6.056;2023-02-20T04:22:47;102184.88;;;6.29;100.00
69751;BME280;57335;52.288;6.056;2023-02-20T04:25:46;102180.47;;;6.29;100.00
69751;BME280;57335;52.288;6.056;2023-02-20T04:28:15;102174.03;;;6.33;100.00
69751;BME280;57335;52.288;6.056;2023-02-20T04:30:42;102178.16;;;6.36;100.00
69751;BME280;57335;52.288;6.056;2023-02-20T04:33:10;102181.13;;;6.41;100.00
69751;BME280;57335;52.288;6.056;2023-02-20T04:35:37;102182.78;;;6.42;100.00
69751;BME280;57335;52.288;6.056;2023-02-20T04:38:03;102178.38;;;6.43;100.00
69751;BME280;57335;52.288;6.056;2023-02-20T04:40:29;102181.78;;;6.43;100.00
69751;BME280;57335;52.288;6.056;2023-02-20T04:42:56;102175.50;;;6.46;100.00
69751;BME280;57335;52.288;6.056;2023-02-20T04:45:22;102179.44;;;6.50;100.00
69751;BME280;57335;52.288;6.056;2023-02-20T04:47:48;102163.81;;;6.50;100.00
69751;BME280;57335;52.288;6.056;2023-02-20T04:50:30;102174.75;;;6.53;100.00
69751;BME280;57335;52.288;6.056;2023-02-20T04:52:57;102169.38;;;6.55;100.00
69751;BME280;57335;52.288;6.056;2023-02-20T04:55:23;102159.66;;;6.57;100.00
69751;BME280;57335;52.288;6.056;2023-02-20T04:57:50;102161.16;;;6.59;100.00
69751;BME280;57335;52.288;6.056;2023-02-20T05:00:18;102166.19;;;6.61;100.00
69751;BME280;57335;52.288;6.056;2023-02-20T05:02:44;102159.38;;;6.60;100.00
69751;BME280;57335;52.288;6.056;2023-02-20T05:05:17;102173.72;;;6.64;100.00
69751;BME280;57335;52.288;6.056;2023-02-20T05:07:44;102163.16;;;6.66;100.00
69751;BME280;57335;52.288;6.056;2023-02-20T05:10:15;102176.69;;;6.69;100.00
69751;BME280;57335;52.288;6.056;2023-02-20T05:12:41;102179.84;;;6.73;100.00
69751;BME280;57335;52.288;6.056;2023-02-20T05:15:08;102172.03;;;6.73;100.00
69751;BME280;57335;52.288;6.056;2023-02-20T05:17:35;102171.88;;;6.74;100.00
69751;BME280;57335;52.288;6.056;2023-02-20T05:20:03;102175.81;;;6.78;100.00
69751;BME280;57335;52.288;6.056;2023-02-20T05:22:29;102178.16;;;6.82;100.00
69751;BME280;57335;52.288;6.056;2023-02-20T05:24:56;102176.34;;;6.82;100.00
69751;BME280;57335;52.288;6.056;2023-02-20T05:27:23;102179.50;;;6.86;100.00
69751;BME280;57335;52.288;6.056;2023-02-20T05:29:54;102167.28;;;6.86;100.00
69751;BME280;57335;52.288;6.056;2023-02-20T05:32:23;102169.44;;;6.91;100.00
69751;BME280;57335;52.288;6.056;2023-02-20T05:34:49;102158.84;;;6.92;100.00
69751;BME280;57335;52.288;6.056;2023-02-20T05:37:17;102153.34;;;6.95;100.00
69751;BME280;57335;52.288;6.056;2023-02-20T05:39:45;102154.59;;;6.91;100.00
69751;BME280;57335;52.288;6.056;2023-02-20T05:42:12;102150.91;;;6.94;100.00
69751;BME280;57335;52.288;6.056;2023-02-20T05:44:39;102154.31;;;6.94;100.00
69751;BME280;57335;52.288;6.056;2023-02-20T05:47:06;102145.81;;;6.92;100.00
69751;BME280;57335;52.288;6.056;2023-02-20T05:49:34;102146.50;;;6.94;100.00
69751;BME280;57335;52.288;6.056;2023-02-20T05:52:01;102144.03;;;6.93;100.00
69751;BME280;57335;52.288;6.056;2023-02-20T05:54:28;102141.56;;;6.91;100.00
69751;BME280;57335;52.288;6.056;2023-02-20T05:56:54;102134.59;;;6.92;100.00
69751;BME280;57335;52.288;6.056;2023-02-20T05:59:22;102142.25;;;6.93;100.00
69751;BME280;57335;52.288;6.056;2023-02-20T06:01:49;102138.81;;;6.93;100.00
69751;BME280;57335;52.288;6.056;2023-02-20T06:04:15;102141.28;;;6.94;100.00
69751;BME280;57335;52.288;6.056;2023-02-20T06:06:41;102138.53;;;6.96;100.00
69751;BME280;57335;52.288;6.056;2023-02-20T06:09:09;102142.63;;;6.98;100.00
69751;BME280;57335;52.288;6.056;2023-02-20T06:11:37;102157.97;;;7.02;100.00
69751;BME280;57335;52.288;6.056;2023-02-20T06:14:05;102154.91;;;7.06;100.00
69751;BME280;57335;52.288;6.056;2023-02-20T06:16:33;102153.78;;;7.09;100.00
69751;BME280;57335;52.288;6.056;2023-02-20T06:19:00;102147.75;;;7.08;100.00
69751;BME280;57335;52.288;6.056;2023-02-20T06:21:27;102144.84;;;7.11;100.00
69751;BME280;57335;52.288;6.056;2023-02-20T06:23:54;102137.84;;;7.12;100.00
69751;BME280;57335;52.288;6.056;2023-02-20T06:26:22;102136.72;;;7.14;100.00
69751;BME280;57335;52.288;6.056;2023-02-20T06:28:48;102144.09;;;7.19;100.00
69751;BME280;57335;52.288;6.056;2023-02-20T06:31:21;102143.78;;;7.22;100.00
69751;BME280;57335;52.288;6.056;2023-02-20T06:33:48;102132.03;;;7.18;100.00
69751;BME280;57335;52.288;6.056;2023-02-20T06:36:40;102140.34;;;7.22;100.00
69751;BME280;57335;52.288;6.056;2023-02-20T06:39:07;102140.88;;;7.25;100.00
69751;BME280;57335;52.288;6.056;2023-02-20T06:41:33;102131.44;;;7.24;100.00
69751;BME280;57335;52.288;6.056;2023-02-20T06:44:00;102119.06;;;7.26;100.00
69751;BME280;57335;52.288;6.056;2023-02-20T06:46:27;102111.91;;;7.28;100.00
69751;BME280;57335;52.288;6.056;2023-02-20T06:48:55;102117.78;;;7.30;100.00
69751;BME280;57335;52.288;6.056;2023-02-20T06:51:26;102106.53;;;7.30;100.00
69751;BME280;57335;52.288;6.056;2023-02-20T06:53:53;102103.09;;;7.29;100.00
69751;BME280;57335;52.288;6.056;2023-02-20T06:56:22;102110.47;;;7.34;100.00
69751;BME280;57335;52.288;6.056;2023-02-20T06:58:51;102108.69;;;7.34;100.00
69751;BME280;57335;52.288;6.056;2023-02-20T07:01:19;102105.75;;;7.37;100.00
69751;BME280;57335;52.288;6.056;2023-02-20T07:03:47;102111.81;;;7.38;100.00
69751;BME280;57335;52.288;6.056;2023-02-20T07:06:14;102119.97;;;7.43;100.00
69751;BME280;57335;52.288;6.056;2023-02-20T07:08:41;102124.38;;;7.43;100.00
69751;BME280;57335;52.288;6.056;2023-02-20T07:11:08;102127.34;;;7.48;100.00
69751;BME280;57335;52.288;6.056;2023-02-20T07:13:34;102132.56;;;7.48;100.00
69751;BME280;57335;52.288;6.056;2023-02-20T07:16:01;102141.56;;;7.53;100.00
69751;BME280;57335;52.288;6.056;2023-02-20T07:18:27;102143.50;;;7.51;100.00
69751;BME280;57335;52.288;6.056;2023-02-20T07:20:54;102141.41;;;7.55;100.00
69751;BME280;57335;52.288;6.056;2023-02-20T07:23:21;102142.72;;;7.59;100.00
69751;BME280;57335;52.288;6.056;2023-02-20T07:25:48;102150.25;;;7.62;100.00
69751;BME280;57335;52.288;6.056;2023-02-20T07:28:16;102152.88;;;7.62;100.00
69751;BME280;57335;52.288;6.056;2023-02-20T07:30:43;102149.94;;;7.65;100.00
69751;BME280;57335;52.288;6.056;2023-02-20T07:33:09;102153.53;;;7.64;100.00
69751;BME280;57335;52.288;6.056;2023-02-20T07:35:36;102155.53;;;7.70;100.00
69751;BME280;57335;52.288;6.056;2023-02-20T07:38:02;102147.38;;;7.73;100.00
69751;BME280;57335;52.288;6.056;2023-02-20T07:40:29;102145.59;;;7.74;100.00
69751;BME280;57335;52.288;6.056;2023-02-20T07:42:55;102142.81;;;7.75;100.00
69751;BME280;57335;52.288;6.056;2023-02-20T07:45:22;102151.31;;;7.77;100.00
69751;BME280;57335;52.288;6.056;2023-02-20T07:47:48;102152.81;;;7.80;100.00
69751;BME280;57335;52.288;6.056;2023-02-20T07:50:14;102163.25;;;7.80;100.00
69751;BME280;57335;52.288;6.056;2023-02-20T07:52:42;102158.53;;;7.84;100.00
69751;BME280;57335;52.288;6.056;2023-02-20T07:55:09;102153.00;;;7.87;100.00
69751;BME280;57335;52.288;6.056;2023-02-20T07:57:38;102149.59;;;7.86;100.00
69751;BME280;57335;52.288;6.056;2023-02-20T08:00:05;102151.06;;;7.89;100.00
69751;BME280;57335;52.288;6.056;2023-02-20T08:02:31;102143.06;;;7.90;100.00
69751;BME280;57335;52.288;6.056;2023-02-20T08:04:58;102145.22;;;7.95;100.00
69751;BME280;57335;52.288;6.056;2023-02-20T08:07:24;102145.06;;;7.96;100.00
69751;BME280;57335;52.288;6.056;2023-02-20T08:09:51;102136.41;;;7.96;100.00
69751;BME280;57335;52.288;6.056;2023-02-20T08:12:17;102124.19;;;7.96;100.00
69751;BME280;57335;52.288;6.056;2023-02-20T08:14:43;102124.03;;;7.98;100.00
69751;BME280;57335;52.288;6.056;2023-02-20T08:17:10;102117.66;;;8.01;100.00
69751;BME280;57335;52.288;6.056;2023-02-20T08:19:36;102127.97;;;8.02;100.00
69751;BME280;57335;52.288;6.056;2023-02-20T08:22:02;102120.78;;;8.04;100.00
69751;BME280;57335;52.288;6.056;2023-02-20T08:24:29;102113.75;;;8.05;100.00
69751;BME280;57335;52.288;6.056;2023-02-20T08:26:55;102119.00;;;8.13;100.00
69751;BME280;57335;52.288;6.056;2023-02-20T08:29:24;102112.50;;;8.17;100.00
69751;BME280;57335;52.288;6.056;2023-02-20T08:31:50;102112.19;;;8.20;100.00
69751;BME280;57335;52.288;6.056;2023-02-20T08:34:17;102109.75;;;8.27;100.00
69751;BME280;57335;52.288;6.056;2023-02-20T08:36:43;102120.56;;;8.32;100.00
69751;BME280;57335;52.288;6.056;2023-02-20T08:39:10;102113.69;;;8.39;100.00
69751;BME280;57335;52.288;6.056;2023-02-20T08:41:43;102112.44;;;8.43;100.00
69751;BME280;57335;52.288;6.056;2023-02-20T08:44:11;102119.97;;;8.54;100.00
69751;BME280;57335;52.288;6.056;2023-02-20T08:46:44;102111.50;;;8.61;100.00
69751;BME280;57335;52.288;6.056;2023-02-20T08:49:11;102115.72;;;8.62;100.00
69751;BME280;57335;52.288;6.056;2023-02-20T08:51:37;102115.91;;;8.68;100.00
69751;BME280;57335;52.288;6.056;2023-02-20T08:54:03;102125.38;;;8.69;100.00
69751;BME280;57335;52.288;6.056;2023-02-20T08:56:30;102130.44;;;8.71;100.00
69751;BME280;57335;52.288;6.056;2023-02-20T08:58:56;102128.50;;;8.73;100.00
69751;BME280;57335;52.288;6.056;2023-02-20T09:01:23;102121.44;;;8.73;100.00
69751;BME280;57335;52.288;6.056;2023-02-20T09:03:49;102121.31;;;8.75;100.00
69751;BME280;57335;52.288;6.056;2023-02-20T09:06:16;102133.72;;;8.81;100.00
69751;BME280;57335;52.288;6.056;2023-02-20T09:08:42;102123.41;;;8.79;100.00
69751;BME280;57335;52.288;6.056;2023-02-20T09:11:09;102135.53;;;8.81;100.00
69751;BME280;57335;52.288;6.056;2023-02-20T09:13:41;102143.69;;;8.86;100.00
69751;BME280;57335;52.288;6.056;2023-02-20T09:16:07;102137.66;;;8.85;100.00
69751;BME280;57335;52.288;6.056;2023-02-20T09:18:33;102142.22;;;8.91;100.00
69751;BME280;57335;52.288;6.056;2023-02-20T09:21:00;102146.63;;;8.91;100.00
69751;BME280;57335;52.288;6.056;2023-02-20T09:23:26;102139.09;;;8.88;100.00
69751;BME280;57335;52.288;6.056;2023-02-20T09:25:53;102142.56;;;8.88;100.00
69751;BME280;57335;52.288;6.056;2023-02-20T09:28:19;102142.38;;;8.90;100.00
69751;BME280;57335;52.288;6.056;2023-02-20T09:30:46;102144.03;;;8.91;100.00
69751;BME280;57335;52.288;6.056;2023-02-20T09:33:12;102142.72;;;8.95;100.00
69751;BME280;57335;52.288;6.056;2023-02-20T09:35:39;102139.09;;;8.96;100.00
69751;BME280;57335;52.288;6.056;2023-02-20T09:38:05;102126.22;;;8.94;100.00
69751;BME280;57335;52.288;6.056;2023-02-20T09:40:31;102120.81;;;8.96;100.00
69751;BME280;57335;52.288;6.056;2023-02-20T09:43:05;102116.41;;;8.96;100.00
69751;BME280;57335;52.288;6.056;2023-02-20T09:45:35;102117.06;;;8.98;100.00
69751;BME280;57335;52.288;6.056;2023-02-20T09:48:22;102118.38;;;9.03;100.00
69751;BME280;57335;52.288;6.056;2023-02-20T09:51:01;102120.00;;;9.04;100.00
69751;BME280;57335;52.288;6.056;2023-02-20T09:53:58;102135.03;;;9.10;100.00
69751;BME280;57335;52.288;6.056;2023-02-20T09:56:30;102139.94;;;9.13;100.00
69751;BME280;57335;52.288;6.056;2023-02-20T10:01:28;102141.25;;;9.17;100.00
69751;BME280;57335;52.288;6.056;2023-02-20T10:03:59;102146.47;;;9.17;100.00
69751;BME280;57335;52.288;6.056;2023-02-20T10:06:29;102148.44;;;9.15;100.00
69751;BME280;57335;52.288;6.056;2023-02-20T10:08:56;102149.25;;;9.15;100.00
69751;BME280;57335;52.288;6.056;2023-02-20T10:11:57;102159.56;;;9.17;100.00
69751;BME280;57335;52.288;6.056;2023-02-20T10:14:42;102155.28;;;9.16;100.00
69751;BME280;57335;52.288;6.056;2023-02-20T10:20:59;102135.38;;;9.15;100.00
69751;BME280;57335;52.288;6.056;2023-02-20T10:26:24;102150.72;;;9.18;100.00
69751;BME280;57335;52.288;6.056;2023-02-20T10:28:52;102137.47;;;9.19;100.00
69751;BME280;57335;52.288;6.056;2023-02-20T10:31:28;102141.91;;;9.19;100.00
69751;BME280;57335;52.288;6.056;2023-02-20T10:34:04;102129.97;;;9.16;100.00
69751;BME280;57335;52.288;6.056;2023-02-20T10:36:40;102108.41;;;9.14;100.00
69751;BME280;57335;52.288;6.056;2023-02-20T10:39:16;102110.03;;;9.15;100.00
69751;BME280;57335;52.288;6.056;2023-02-20T10:42:22;102123.75;;;9.17;100.00
69751;BME280;57335;52.288;6.056;2023-02-20T10:47:23;102101.50;;;9.22;100.00
69751;BME280;57335;52.288;6.056;2023-02-20T10:50:06;102106.59;;;9.23;100.00
69751;BME280;57335;52.288;6.056;2023-02-20T10:52:41;102117.38;;;9.20;100.00
69751;BME280;57335;52.288;6.056;2023-02-20T10:55:42;102114.09;;;9.18;100.00
69751;BME280;57335;52.288;6.056;2023-02-20T10:58:23;102119.31;;;9.18;100.00
69751;BME280;57335;52.288;6.056;2023-02-20T11:01:00;102110.19;;;9.22;100.00
69751;BME280;57335;52.288;6.056;2023-02-20T11:06:19;102121.63;;;9.21;100.00
69751;BME280;57335;52.288;6.056;2023-02-20T11:08:46;102120.31;;;9.17;100.00
69751;BME280;57335;52.288;6.056;2023-02-20T11:11:35;102129.63;;;9.19;100.00
69751;BME280;57335;52.288;6.056;2023-02-20T11:14:11;102130.47;;;9.20;100.00
69751;BME280;57335;52.288;6.056;2023-02-20T11:17:04;102144.50;;;9.19;100.00
69751;BME280;57335;52.288;6.056;2023-02-20T11:19:39;102147.13;;;9.19;100.00
69751;BME280;57335;52.288;6.056;2023-02-20T11:22:07;102148.78;;;9.20;100.00
69751;BME280;57335;52.288;6.056;2023-02-20T11:24:35;102145.97;;;9.22;100.00
69751;BME280;57335;52.288;6.056;2023-02-20T11:27:05;102145.00;;;9.23;100.00
69751;BME280;57335;52.288;6.056;2023-02-20T11:29:58;102150.56;;;9.19;100.00
69751;BME280;57335;52.288;6.056;2023-02-20T11:34:48;102142.88;;;9.18;100.00
69751;BME280;57335;52.288;6.056;2023-02-20T11:37:27;102147.44;;;9.16;100.00
69751;BME280;57335;52.288;6.056;2023-02-20T11:39:56;102151.41;;;9.20;100.00
69751;BME280;57335;52.288;6.056;2023-02-20T11:42:31;102137.16;;;9.14;100.00
69751;BME280;57335;52.288;6.056;2023-02-20T11:45:13;102132.75;;;9.15;100.00
69751;BME280;57335;52.288;6.056;2023-02-20T11:47:39;102129.78;;;9.18;100.00
69751;BME280;57335;52.288;6.056;2023-02-20T11:50:12;102098.75;;;9.15;100.00
69751;BME280;57335;52.288;6.056;2023-02-20T11:53:19;102105.78;;;9.14;100.00
69751;BME280;57335;52.288;6.056;2023-02-20T11:56:05;102105.59;;;9.16;100.00
69751;BME280;57335;52.288;6.056;2023-02-20T11:58:32;102100.53;;;9.23;100.00
69751;BME280;57335;52.288;6.056;2023-02-20T12:00:59;102096.13;;;9.23;100.00
69751;BME280;57335;52.288;6.056;2023-02-20T12:03:31;102108.53;;;9.29;100.00
69751;BME280;57335;52.288;6.056;2023-02-20T12:06:02;102111.78;;;9.31;100.00
69751;BME280;57335;52.288;6.056;2023-02-20T12:09:05;102101.19;;;9.33;100.00
69751;BME280;57335;52.288;6.056;2023-02-20T12:11:34;102093.97;;;9.35;100.00
69751;BME280;57335;52.288;6.056;2023-02-20T12:14:01;102105.25;;;9.35;100.00
69751;BME280;57335;52.288;6.056;2023-02-20T12:25:25;102098.41;;;9.34;100.00
69751;BME280;57335;52.288;6.056;2023-02-20T12:33:25;102106.38;;;9.41;100.00
69751;BME280;57335;52.288;6.056;2023-02-20T12:36:09;102109.31;;;9.38;100.00
69751;BME280;57335;52.288;6.056;2023-02-20T12:38:58;102111.94;;;9.38;100.00
69751;BME280;57335;52.288;6.056;2023-02-20T12:41:39;102107.72;;;9.37;100.00
69751;BME280;57335;52.288;6.056;2023-02-20T12:52:31;102091.84;;;9.38;100.00
69751;BME280;57335;52.288;6.056;2023-02-20T12:55:13;102084.97;;;9.37;100.00
69751;BME280;57335;52.288;6.056;2023-02-20T13:01:03;102058.16;;;9.35;100.00
69751;BME280;57335;52.288;6.056;2023-02-20T13:06:26;102063.72;;;9.41;100.00
69751;BME280;57335;52.288;6.056;2023-02-20T13:09:08;102062.41;;;9.45;100.00
69751;BME280;57335;52.288;6.056;2023-02-20T13:11:41;102066.31;;;9.49;100.00
69751;BME280;57335;52.288;6.056;2023-02-20T13:19:35;102074.25;;;9.64;100.00
69751;BME280;57335;52.288;6.056;2023-02-20T13:22:02;102070.19;;;9.61;100.00
69751;BME280;57335;52.288;6.056;2023-02-20T13:24:40;102070.19;;;9.61;100.00
69751;BME280;57335;52.288;6.056;2023-02-20T13:27:08;102056.28;;;9.61;100.00
69751;BME280;57335;52.288;6.056;2023-02-20T13:29:55;102050.22;;;9.60;100.00
69751;BME280;57335;52.288;6.056;2023-02-20T13:32:27;102053.16;;;9.65;100.00
69751;BME280;57335;52.288;6.056;2023-02-20T13:38:16;102054.28;;;9.71;100.00
69751;BME280;57335;52.288;6.056;2023-02-20T13:40:44;102050.19;;;9.76;100.00
69751;BME280;57335;52.288;6.056;2023-02-20T13:45:42;102054.91;;;9.81;100.00
69751;BME280;57335;52.288;6.056;2023-02-20T13:54:27;102021.03;;;9.79;100.00
69751;BME280;57335;52.288;6.056;2023-02-20T13:59:12;102000.44;;;9.76;100.00
69751;BME280;57335;52.288;6.056;2023-02-20T14:02:15;102015.47;;;9.83;100.00
69751;BME280;57335;52.288;6.056;2023-02-20T14:04:59;102003.34;;;9.82;100.00
69751;BME280;57335;52.288;6.056;2023-02-20T14:07:32;102001.84;;;9.87;100.00
69751;BME280;57335;52.288;6.056;2023-02-20T14:10:15;102010.69;;;9.86;100.00
69751;BME280;57335;52.288;6.056;2023-02-20T14:12:43;101998.25;;;9.88;100.00
69751;BME280;57335;52.288;6.056;2023-02-20T14:15:10;102004.94;;;9.91;100.00
69751;BME280;57335;52.288;6.056;2023-02-20T14:17:36;101993.47;;;9.92;100.00
69751;BME280;57335;52.288;6.056;2023-02-20T14:20:04;101993.19;;;9.87;100.00
69751;BME280;57335;52.288;6.056;2023-02-20T14:22:40;101999.22;;;9.87;100.00
69751;BME280;57335;52.288;6.056;2023-02-20T14:25:26;102007.88;;;9.88;100.00
69751;BME280;57335;52.288;6.056;2023-02-20T14:28:04;102004.28;;;9.89;100.00